Time;durP1;ratioP1;P1;durP2;ratioP2;P2;SDS_P1;SDS_P2;PMS_P1;PMS_P2;Temp;Humidity;BMP_temperature;BMP_pressure;BME280_temperature;BME280_humidity;BME280_pressure;Samples;Min_cycle;Max_cycle;Signal;HPM_P1;HPM_P2
2024/03/23 00:02:29;;;;;;;96.75;92.10;;;11.70;99.90;;;;;;5035405;28;20398;-77
2024/03/23 00:04:56;;;;;;;79.85;76.03;;;11.70;99.90;;;;;;5035684;28;20044;-77
2024/03/23 00:07:23;;;;;;;94.65;90.07;;;11.70;99.90;;;;;;5034755;28;20363;-77
2024/03/23 00:09:50;;;;;;;122.97;117.00;;;11.70;99.90;;;;;;5035684;28;20033;-77
2024/03/23 00:12:17;;;;;;;120.85;114.88;;;11.80;99.90;;;;;;5050497;28;20040;-77
2024/03/23 00:14:44;;;;;;;87.45;83.28;;;11.70;99.90;;;;;;5034965;28;20044;-77
2024/03/23 00:17:11;;;;;;;79.32;75.57;;;11.70;99.90;;;;;;5037817;28;20040;-77
2024/03/23 00:19:38;;;;;;;52.13;49.67;;;11.70;99.90;;;;;;5035363;28;20390;-77
2024/03/23 00:22:05;;;;;;;39.70;37.85;;;11.60;99.90;;;;;;5035049;28;20475;-77
2024/03/23 00:24:32;;;;;;;36.85;35.15;;;11.60;99.90;;;;;;5050846;28;20034;-77
2024/03/23 00:26:59;;;;;;;36.63;34.92;;;11.70;99.90;;;;;;5034731;28;20466;-77
2024/03/23 00:29:26;;;;;;;34.38;32.72;;;11.60;99.90;;;;;;5035269;28;20026;-77
2024/03/23 00:31:54;;;;;;;35.05;33.38;;;11.60;99.90;;;;;;5049054;28;20367;-77
2024/03/23 00:34:21;;;;;;;34.80;33.17;;;11.50;99.90;;;;;;5034652;28;20045;-77
2024/03/23 00:36:48;;;;;;;35.28;33.63;;;11.40;99.90;;;;;;5034237;28;20029;-77
2024/03/23 00:39:15;;;;;;;33.28;31.73;;;11.40;99.90;;;;;;5034767;28;20040;-77
2024/03/23 00:41:42;;;;;;;33.17;31.60;;;11.40;99.90;;;;;;5034725;28;20053;-77
2024/03/23 00:44:09;;;;;;;21.00;20.00;;;11.20;99.90;;;;;;5035357;28;20037;-77
2024/03/23 00:46:36;;;;;;;24.05;22.92;;;11.20;99.90;;;;;;5051507;28;20064;-76
2024/03/23 00:49:04;;;;;;;24.30;23.20;;;11.20;99.90;;;;;;5033377;28;20054;-70
2024/03/23 00:51:31;;;;;;;28.63;27.15;;;11.00;99.90;;;;;;5035487;28;20061;-70
2024/03/23 00:53:57;;;;;;;25.00;23.80;;;10.90;99.90;;;;;;5043056;28;20040;-70
2024/03/23 00:56:24;;;;;;;26.20;25.00;;;10.90;99.90;;;;;;5034523;28;20046;-70
2024/03/23 00:58:50;;;;;;;28.10;26.27;;;10.80;99.90;;;;;;5034207;28;20052;-70
2024/03/23 01:01:16;;;;;;;28.45;27.05;;;10.80;99.90;;;;;;5033409;28;20041;-70
2024/03/23 01:03:42;;;;;;;25.05;23.20;;;10.70;99.90;;;;;;5034031;28;20038;-70
2024/03/23 01:06:08;;;;;;;41.50;39.08;;;10.60;99.90;;;;;;5033781;28;20033;-70
2024/03/23 01:08:34;;;;;;;35.72;34.05;;;10.50;99.90;;;;;;5051971;28;20052;-70
2024/03/23 01:11:00;;;;;;;32.60;30.55;;;10.40;99.90;;;;;;5047354;28;20368;-70
2024/03/23 01:13:27;;;;;;;32.28;30.77;;;10.50;99.90;;;;;;5034026;28;20030;-70
2024/03/23 01:15:54;;;;;;;26.10;24.90;;;10.50;99.90;;;;;;5033341;28;20056;-70
2024/03/23 01:18:20;;;;;;;28.75;26.90;;;10.50;99.90;;;;;;5033621;28;20502;-70
2024/03/23 01:20:46;;;;;;;25.05;23.90;;;10.60;99.90;;;;;;5033477;28;20045;-70
2024/03/23 01:23:13;;;;;;;27.45;26.17;;;10.60;99.90;;;;;;5048102;28;20048;-70
2024/03/23 01:25:39;;;;;;;30.38;28.95;;;10.70;99.90;;;;;;5036990;28;20671;-70
2024/03/23 01:28:08;;;;;;;28.55;27.17;;;10.70;99.90;;;;;;5033499;28;20033;-70
2024/03/23 01:30:34;;;;;;;34.05;32.40;;;10.60;99.90;;;;;;5036818;28;20033;-70
2024/03/23 01:33:02;;;;;;;29.17;27.77;;;10.50;99.90;;;;;;5033139;28;20030;-70
2024/03/23 01:35:28;;;;;;;26.75;25.50;;;10.50;99.90;;;;;;5034120;28;20044;-70
2024/03/23 01:37:55;;;;;;;28.23;26.92;;;10.50;99.90;;;;;;5033460;28;20029;-70
2024/03/23 01:40:21;;;;;;;26.50;25.25;;;10.60;99.90;;;;;;5037739;28;20021;-70
2024/03/23 01:42:56;;;;;;;27.58;26.27;;;10.60;99.90;;;;;;5033185;28;20045;-69
2024/03/23 01:45:23;;;;;;;29.55;28.13;;;10.40;99.90;;;;;;5033115;28;20529;-70
2024/03/23 01:47:52;;;;;;;29.75;28.38;;;10.40;99.90;;;;;;5032993;28;20478;-70
2024/03/23 01:50:19;;;;;;;31.38;29.85;;;10.40;99.90;;;;;;5036736;28;20044;-70
2024/03/23 01:52:46;;;;;;;30.67;29.25;;;10.40;99.90;;;;;;5032008;28;20049;-72
2024/03/23 01:55:13;;;;;;;32.47;30.92;;;10.40;99.90;;;;;;5031005;28;20422;-72
2024/03/23 01:57:39;;;;;;;32.20;30.45;;;10.50;99.90;;;;;;5032210;28;20034;-72
2024/03/23 02:00:06;;;;;;;30.00;28.60;;;10.40;99.90;;;;;;5049392;28;20045;-72
2024/03/23 02:02:32;;;;;;;29.73;28.35;;;10.40;99.90;;;;;;5037282;28;20048;-72
2024/03/23 02:04:58;;;;;;;29.48;28.10;;;10.40;99.90;;;;;;5033801;28;20036;-73
2024/03/23 02:07:24;;;;;;;28.20;26.77;;;10.40;99.90;;;;;;5032384;28;20038;-72
2024/03/23 02:09:51;;;;;;;33.22;31.65;;;10.30;99.90;;;;;;5032818;28;20052;-74
2024/03/23 02:12:18;;;;;;;30.33;28.90;;;10.20;99.90;;;;;;5031246;28;20033;-73
2024/03/23 02:14:44;;;;;;;28.20;26.85;;;10.20;99.90;;;;;;5032787;28;20025;-72
2024/03/23 02:17:10;;;;;;;31.60;30.10;;;10.10;99.90;;;;;;5030858;28;20033;-73
2024/03/23 02:19:36;;;;;;;28.88;27.40;;;9.90;99.90;;;;;;5032666;28;20056;-73
2024/03/23 02:22:02;;;;;;;33.67;32.10;;;9.90;99.90;;;;;;5032738;28;20489;-72
2024/03/23 02:24:29;;;;;;;31.73;30.25;;;9.90;99.90;;;;;;5032289;28;20021;-72
2024/03/23 02:26:55;;;;;;;34.33;32.70;;;9.90;99.90;;;;;;5032143;28;20037;-72
2024/03/23 02:29:22;;;;;;;36.97;35.20;;;9.90;99.90;;;;;;5032214;28;20064;-72
2024/03/23 02:31:48;;;;;;;40.88;38.83;;;10.00;99.90;;;;;;5041155;28;20037;-72
2024/03/23 02:34:14;;;;;;;48.42;46.15;;;10.00;99.90;;;;;;5035726;28;20029;-72
2024/03/23 02:36:40;;;;;;;43.10;41.08;;;9.90;99.90;;;;;;5032036;28;20040;-72
2024/03/23 02:39:06;;;;;;;50.70;48.33;;;9.90;99.90;;;;;;5032519;28;20041;-73
2024/03/23 02:41:32;;;;;;;76.55;72.93;;;9.90;99.90;;;;;;5031888;28;20036;-72
2024/03/23 02:43:58;;;;;;;60.85;58.00;;;9.80;99.90;;;;;;5032237;28;20482;-72
2024/03/23 02:46:24;;;;;;;67.57;64.32;;;9.80;99.90;;;;;;5031338;28;20033;-73
2024/03/23 02:48:50;;;;;;;70.78;67.30;;;9.80;99.90;;;;;;5047294;28;20379;-72
2024/03/23 02:51:16;;;;;;;71.55;68.18;;;9.80;99.90;;;;;;5031897;28;20048;-72
2024/03/23 02:53:42;;;;;;;73.20;69.75;;;9.70;99.90;;;;;;5032183;28;20505;-72
2024/03/23 02:56:09;;;;;;;65.10;62.05;;;9.70;99.90;;;;;;5037551;28;20048;-72
2024/03/23 02:58:35;;;;;;;78.22;74.55;;;9.70;99.90;;;;;;5032868;28;20025;-72
2024/03/23 03:01:01;;;;;;;72.97;69.53;;;9.60;99.90;;;;;;5030200;28;20049;-72
2024/03/23 03:03:27;;;;;;;69.47;66.20;;;9.70;99.90;;;;;;5026151;28;20398;-72
2024/03/23 03:05:56;;;;;;;93.63;89.07;;;9.70;99.90;;;;;;5029758;28;20029;-72
2024/03/23 03:08:22;;;;;;;90.38;86.03;;;9.70;99.90;;;;;;5040756;28;20033;-72
2024/03/23 03:10:48;;;;;;;72.47;69.03;;;9.70;99.90;;;;;;5038352;28;20034;-72
2024/03/23 03:13:14;;;;;;;78.45;74.70;;;9.70;99.90;;;;;;5034808;28;20494;-72
2024/03/23 03:15:44;;;;;;;80.35;76.50;;;9.70;99.90;;;;;;5033590;28;20026;-72
2024/03/23 03:18:10;;;;;;;86.32;81.10;;;9.70;99.90;;;;;;5034742;28;20042;-72
2024/03/23 03:20:39;;;;;;;75.18;71.63;;;9.70;99.90;;;;;;5035337;28;20032;-72
2024/03/23 03:23:09;;;;;;;82.63;78.68;;;9.70;99.90;;;;;;5044085;28;20493;-72
2024/03/23 03:25:35;;;;;;;79.72;75.68;;;9.70;99.90;;;;;;5034508;28;20454;-72
2024/03/23 03:28:01;;;;;;;77.45;73.68;;;9.70;99.90;;;;;;5034566;28;20040;-72
2024/03/23 03:30:27;;;;;;;88.53;84.28;;;9.60;99.90;;;;;;5033181;28;20057;-72
2024/03/23 03:32:54;;;;;;;89.50;85.20;;;9.50;99.90;;;;;;5034294;28;20018;-72
2024/03/23 03:35:20;;;;;;;87.40;83.25;;;9.50;99.90;;;;;;5034692;28;20049;-72
2024/03/23 03:37:46;;;;;;;89.47;85.20;;;9.60;99.90;;;;;;5035507;28;20033;-72
2024/03/23 03:40:14;;;;;;;100.18;95.35;;;9.60;99.90;;;;;;5035003;28;20466;-69
2024/03/23 03:42:41;;;;;;;103.43;98.43;;;9.60;99.90;;;;;;5055601;28;20057;-69
2024/03/23 03:45:07;;;;;;;97.53;92.80;;;9.70;99.90;;;;;;5055858;28;20041;-69
2024/03/23 03:47:33;;;;;;;101.20;96.40;;;9.60;99.90;;;;;;5035745;28;20056;-70
2024/03/23 03:50:00;;;;;;;107.22;102.10;;;9.40;99.90;;;;;;5035566;28;20037;-70
2024/03/23 03:52:26;;;;;;;106.20;101.15;;;9.50;99.90;;;;;;5035179;28;20053;-70
2024/03/23 03:54:59;;;;;;;100.90;96.07;;;9.50;99.90;;;;;;5035019;28;20490;-70
2024/03/23 03:57:25;;;;;;;113.78;108.32;;;9.40;99.90;;;;;;5033439;28;20033;-70
2024/03/23 03:59:51;;;;;;;104.55;99.55;;;9.40;99.90;;;;;;5035032;28;20521;-70
2024/03/23 04:02:18;;;;;;;75.53;71.80;;;9.40;99.90;;;;;;5050106;28;20037;-69
2024/03/23 04:04:44;;;;;;;91.93;87.53;;;9.50;99.90;;;;;;5055287;28;20029;-70
2024/03/23 04:07:10;;;;;;;117.53;111.88;;;9.40;99.90;;;;;;5038139;28;20040;-70
2024/03/23 04:09:36;;;;;;;106.80;100.32;;;9.40;99.90;;;;;;5035207;28;20045;-70
2024/03/23 04:12:02;;;;;;;85.53;81.45;;;9.40;99.90;;;;;;5034682;28;20037;-69
2024/03/23 04:14:28;;;;;;;101.50;96.55;;;9.40;99.90;;;;;;5035291;28;20029;-69
2024/03/23 04:16:55;;;;;;;110.20;104.65;;;9.40;99.90;;;;;;5034382;28;20041;-70
2024/03/23 04:19:21;;;;;;;94.20;89.70;;;9.40;99.90;;;;;;5034091;28;20052;-70
2024/03/23 04:21:47;;;;;;;106.10;101.03;;;9.40;99.90;;;;;;5049390;28;20045;-70
2024/03/23 04:24:15;;;;;;;104.50;99.40;;;9.40;99.90;;;;;;5052278;28;20041;-70
2024/03/23 04:26:42;;;;;;;94.50;89.85;;;9.40;99.90;;;;;;5041893;28;20041;-69
2024/03/23 04:29:08;;;;;;;110.65;105.35;;;9.20;99.90;;;;;;5034315;28;20044;-70
2024/03/23 04:31:34;;;;;;;127.68;121.55;;;9.20;99.90;;;;;;5033833;28;20482;-70
2024/03/23 04:34:01;;;;;;;119.68;113.90;;;9.20;99.90;;;;;;5034646;28;20052;-69
2024/03/23 04:36:27;;;;;;;123.65;117.70;;;9.20;99.90;;;;;;5035064;28;20486;-70
2024/03/23 04:38:53;;;;;;;124.57;118.55;;;9.20;99.90;;;;;;5050647;28;20037;-70
2024/03/23 04:41:19;;;;;;;134.68;128.23;;;9.10;99.90;;;;;;5044239;28;20497;-69
2024/03/23 04:43:45;;;;;;;116.80;111.15;;;9.00;99.90;;;;;;5034953;28;20064;-72
2024/03/23 04:46:12;;;;;;;118.97;113.28;;;9.00;99.90;;;;;;5033535;28;20406;-72
2024/03/23 04:48:38;;;;;;;124.10;117.43;;;9.00;99.90;;;;;;5034532;28;20044;-71
2024/03/23 04:51:04;;;;;;;115.40;109.85;;;9.00;99.90;;;;;;5033917;28;20490;-72
2024/03/23 04:53:30;;;;;;;115.70;110.18;;;8.90;99.90;;;;;;5044436;28;20037;-72
2024/03/23 04:55:56;;;;;;;130.18;123.68;;;8.80;99.90;;;;;;5039099;28;20029;-71
2024/03/23 04:58:23;;;;;;;104.68;99.63;;;8.90;99.90;;;;;;5034590;28;20041;-73
2024/03/23 05:00:54;;;;;;;114.80;109.28;;;8.90;99.90;;;;;;5034207;28;20040;-72
2024/03/23 05:03:21;;;;;;;129.10;122.88;;;8.90;99.90;;;;;;5034099;28;20037;-72
2024/03/23 05:05:48;;;;;;;126.53;120.38;;;8.90;99.90;;;;;;5033904;28;20041;-72
2024/03/23 05:08:15;;;;;;;127.05;120.88;;;8.80;99.90;;;;;;5041644;28;20033;-72
2024/03/23 05:10:42;;;;;;;118.60;112.63;;;8.60;99.90;;;;;;5048665;28;20024;-72
2024/03/23 05:13:08;;;;;;;133.55;127.07;;;8.70;99.90;;;;;;5034024;28;20022;-72
2024/03/23 05:15:34;;;;;;;128.75;122.07;;;8.80;99.90;;;;;;5033255;28;20108;-72
2024/03/23 05:18:01;;;;;;;120.97;115.15;;;8.80;99.90;;;;;;5045524;28;20040;-72
2024/03/23 05:20:27;;;;;;;131.02;124.70;;;8.80;99.90;;;;;;5034512;28;20041;-72
2024/03/23 05:22:55;;;;;;;137.00;130.35;;;8.70;99.90;;;;;;5033595;28;20399;-72
2024/03/23 05:25:21;;;;;;;140.18;133.35;;;8.60;99.90;;;;;;5037443;28;20029;-72
2024/03/23 05:27:47;;;;;;;129.38;123.13;;;8.70;99.90;;;;;;5052994;28;20060;-72
2024/03/23 05:30:14;;;;;;;122.68;116.78;;;8.70;99.90;;;;;;5039036;28;20033;-72
2024/03/23 05:32:41;;;;;;;114.50;109.00;;;8.80;99.90;;;;;;5036963;28;20044;-72
2024/03/23 05:35:08;;;;;;;123.95;118.00;;;8.80;99.90;;;;;;5053535;28;20043;-72
2024/03/23 05:37:34;;;;;;;129.90;123.65;;;8.80;99.90;;;;;;5031677;28;20033;-72
2024/03/23 05:40:01;;;;;;;120.10;114.32;;;8.70;99.90;;;;;;5032804;28;20041;-72
2024/03/23 05:42:27;;;;;;;104.38;99.38;;;8.70;99.90;;;;;;5038032;28;20037;-72
2024/03/23 05:44:53;;;;;;;111.13;105.20;;;8.80;99.90;;;;;;5043727;28;20045;-72
2024/03/23 05:47:19;;;;;;;110.50;104.97;;;8.70;99.90;;;;;;5014226;28;20038;-72
2024/03/23 05:49:46;;;;;;;100.20;95.40;;;8.60;99.90;;;;;;5013362;28;20038;-72
2024/03/23 05:52:12;;;;;;;108.63;103.43;;;8.70;99.90;;;;;;5012263;28;20554;-70
2024/03/23 05:54:39;;;;;;;119.05;113.22;;;8.70;99.90;;;;;;5012810;28;20048;-70
2024/03/23 05:57:07;;;;;;;114.88;109.38;;;8.70;99.90;;;;;;5012971;28;20063;-70
2024/03/23 05:59:33;;;;;;;101.95;97.10;;;8.60;99.90;;;;;;5016203;28;20510;-70
2024/03/23 06:01:59;;;;;;;119.93;114.18;;;8.60;99.90;;;;;;5019406;28;20049;-70
2024/03/23 06:04:25;;;;;;;96.05;91.47;;;8.70;99.90;;;;;;5011597;28;20482;-70
2024/03/23 06:06:55;;;;;;;129.80;122.65;;;8.70;99.90;;;;;;5012770;28;20029;-70
2024/03/23 06:09:21;;;;;;;84.72;80.70;;;8.60;99.90;;;;;;5012854;28;20037;-70
2024/03/23 06:11:47;;;;;;;98.00;93.10;;;8.60;99.90;;;;;;5013144;28;20360;-70
2024/03/23 06:14:13;;;;;;;82.05;78.18;;;8.60;99.90;;;;;;5011981;28;20045;-70
2024/03/23 06:16:39;;;;;;;95.93;91.38;;;8.60;99.90;;;;;;5041312;28;20470;-70
2024/03/23 06:19:06;;;;;;;83.55;79.57;;;8.60;99.90;;;;;;5032166;28;20576;-69
2024/03/23 06:21:33;;;;;;;103.20;98.25;;;8.50;99.90;;;;;;5014065;28;20052;-70
2024/03/23 06:23:59;;;;;;;100.75;95.40;;;8.50;99.90;;;;;;5012764;28;20042;-70
2024/03/23 06:26:25;;;;;;;93.10;88.68;;;8.50;99.90;;;;;;5012886;28;20378;-70
2024/03/23 06:28:51;;;;;;;114.50;109.00;;;8.50;99.90;;;;;;5020840;28;20720;-70
2024/03/23 06:31:18;;;;;;;118.85;113.00;;;8.30;99.90;;;;;;5031257;28;20049;-70
2024/03/23 06:33:44;;;;;;;99.65;94.85;;;8.40;99.90;;;;;;5033514;28;20041;-69
2024/03/23 06:36:10;;;;;;;64.88;61.80;;;8.40;99.90;;;;;;5022875;28;20475;-70
2024/03/23 06:38:39;;;;;;;76.70;73.10;;;8.40;99.90;;;;;;5012632;28;20490;-70
2024/03/23 06:41:05;;;;;;;67.70;64.50;;;8.50;99.90;;;;;;5026373;28;20382;-69
2024/03/23 06:43:31;;;;;;;53.53;50.97;;;8.60;99.90;;;;;;5031901;28;20046;-70
2024/03/23 06:45:57;;;;;;;77.35;72.78;;;9.00;99.90;;;;;;5021634;28;20033;-70
2024/03/23 06:48:24;;;;;;;64.78;61.70;;;9.20;99.90;;;;;;5028744;28;20813;-69
2024/03/23 06:50:54;;;;;;;48.08;44.78;;;9.30;99.90;;;;;;5030286;28;20041;-69
2024/03/23 06:53:20;;;;;;;49.10;46.53;;;9.50;99.90;;;;;;5030395;28;20036;-72
2024/03/23 06:55:50;;;;;;;70.93;67.57;;;9.70;99.90;;;;;;5036467;28;20474;-73
2024/03/23 06:58:16;;;;;;;99.90;94.95;;;9.60;99.90;;;;;;5031075;28;20025;-74
2024/03/23 07:00:42;;;;;;;151.88;144.50;;;9.70;99.90;;;;;;5031350;28;20057;-73
2024/03/23 07:03:08;;;;;;;113.35;107.45;;;9.90;99.90;;;;;;5030445;28;20038;-73
2024/03/23 07:05:35;;;;;;;87.68;83.28;;;10.00;99.90;;;;;;5034000;28;20029;-73
2024/03/23 07:08:01;;;;;;;84.80;80.75;;;10.00;99.90;;;;;;5050073;28;20052;-73
2024/03/23 07:10:27;;;;;;;89.32;85.07;;;10.10;99.90;;;;;;5036765;28;20026;-74
2024/03/23 07:12:53;;;;;;;58.38;55.63;;;10.20;99.90;;;;;;5033539;28;20025;-73
2024/03/23 07:15:19;;;;;;;55.45;52.80;;;10.20;99.90;;;;;;5031316;28;20034;-73
2024/03/23 07:17:48;;;;;;;124.85;118.80;;;10.40;99.90;;;;;;5042472;28;20036;-74
2024/03/23 07:20:14;;;;;;;146.00;138.95;;;10.60;99.90;;;;;;5012305;28;20402;-73
2024/03/23 07:22:40;;;;;;;38.78;34.95;;;10.70;99.90;;;;;;5031703;28;20478;-73
2024/03/23 07:25:07;;;;;;;38.42;36.60;;;10.90;99.90;;;;;;5032119;28;20041;-73
2024/03/23 07:27:33;;;;;;;45.63;43.13;;;11.00;99.90;;;;;;5030323;28;20025;-73
2024/03/23 07:30:00;;;;;;;37.80;36.03;;;11.10;99.90;;;;;;5040624;28;20052;-73
2024/03/23 07:32:27;;;;;;;68.43;64.82;;;11.10;99.90;;;;;;5039075;28;20510;-73
2024/03/23 07:34:53;;;;;;;72.70;69.28;;;11.20;99.90;;;;;;5031555;28;20414;-73
2024/03/23 07:37:19;;;;;;;65.13;61.92;;;11.10;99.90;;;;;;5031471;28;20386;-73
2024/03/23 07:39:45;;;;;;;83.68;79.60;;;11.30;99.90;;;;;;5031213;28;20034;-73
2024/03/23 07:42:11;;;;;;;62.53;59.35;;;11.50;99.90;;;;;;5036541;28;20568;-75
2024/03/23 07:44:37;;;;;;;33.67;32.00;;;11.80;99.90;;;;;;5034152;28;20041;-74
2024/03/23 07:47:04;;;;;;;29.30;27.92;;;11.80;99.90;;;;;;5032674;28;20025;-73
2024/03/23 07:49:30;;;;;;;31.40;29.95;;;11.80;99.90;;;;;;5030880;28;20030;-73
2024/03/23 07:51:56;;;;;;;27.67;25.50;;;11.80;99.90;;;;;;5031714;28;20029;-73
2024/03/23 07:54:22;;;;;;;29.23;27.85;;;12.00;99.90;;;;;;5031614;28;20040;-74
2024/03/23 07:56:48;;;;;;;36.65;34.90;;;12.20;99.90;;;;;;5034905;28;20037;-74
2024/03/23 07:59:14;;;;;;;58.95;56.15;;;12.40;99.90;;;;;;5047285;28;20044;-74
2024/03/23 08:01:40;;;;;;;89.10;84.85;;;12.50;99.90;;;;;;5041922;28;20025;-74
2024/03/23 08:04:06;;;;;;;41.20;38.75;;;12.50;99.90;;;;;;5034440;28;20044;-73
2024/03/23 08:06:32;;;;;;;1999.90;999.90;;;12.60;99.90;;;;;;5034883;28;20033;-67
2024/03/23 08:09:01;;;;;;;1999.90;999.90;;;12.80;99.90;;;;;;5043533;28;20037;-67
2024/03/23 08:11:31;;;;;;;1999.90;999.90;;;12.70;99.90;;;;;;5038887;28;20410;-68
2024/03/23 08:13:57;;;;;;;1999.90;999.90;;;12.70;99.90;;;;;;5031803;28;20033;-69
2024/03/23 08:16:23;;;;;;;1999.90;999.90;;;12.80;99.90;;;;;;5032890;28;20030;-69
2024/03/23 08:18:52;;;;;;;1999.90;999.90;;;12.80;99.90;;;;;;5034597;28;20037;-69
2024/03/23 08:21:18;;;;;;;1999.90;999.90;;;12.90;99.90;;;;;;5039966;28;20044;-69
2024/03/23 08:23:44;;;;;;;1999.90;999.90;;;13.10;99.90;;;;;;5034732;28;20040;-69
2024/03/23 08:26:12;;;;;;;1999.90;999.90;;;13.30;99.90;;;;;;5038567;28;20363;-69
2024/03/23 08:28:39;;;;;;;1999.90;999.90;;;13.30;99.90;;;;;;5034718;28;20053;-69
2024/03/23 08:31:07;;;;;;;1999.90;999.90;;;13.40;99.90;;;;;;5034730;28;20029;-69
2024/03/23 08:33:33;;;;;;;1999.90;999.90;;;13.50;99.90;;;;;;5050415;28;20032;-69
2024/03/23 08:36:00;;;;;;;1999.90;999.90;;;13.40;99.90;;;;;;5046543;28;20429;-69
2024/03/23 08:38:27;;;;;;;1999.90;999.90;;;13.50;99.90;;;;;;5034544;28;20025;-69
2024/03/23 08:41:00;;;;;;;1999.90;999.90;;;13.70;99.90;;;;;;5034180;28;20029;-68
2024/03/23 08:43:26;;;;;;;1999.90;999.90;;;13.90;99.90;;;;;;5034275;28;20046;-68
2024/03/23 08:45:53;;;;;;;1999.90;999.90;;;14.00;99.90;;;;;;5033640;28;20398;-68
2024/03/23 08:48:22;;;;;;;1999.90;999.90;;;14.00;99.90;;;;;;5034240;28;20030;-68
2024/03/23 08:51:02;;;;;;;1999.90;999.90;;;14.00;99.90;;;;;;5035075;28;20037;-67
2024/03/23 08:53:29;;;;;;;1999.90;999.90;;;14.30;99.90;;;;;;5033943;28;20030;-64
2024/03/23 08:55:56;;;;;;;1999.90;999.90;;;14.50;99.90;;;;;;5034114;28;20045;-69
2024/03/23 08:58:24;;;;;;;1999.90;999.90;;;14.60;99.90;;;;;;5033290;28;20037;-69
2024/03/23 09:00:51;;;;;;;1999.90;999.90;;;14.60;99.90;;;;;;5031583;28;20042;-69
2024/03/23 09:03:17;;;;;;;1999.90;999.90;;;14.30;99.90;;;;;;5033376;28;20041;-69
2024/03/23 09:05:43;;;;;;;1999.90;999.90;;;13.90;99.90;;;;;;5030523;28;20486;-69
2024/03/23 09:08:09;;;;;;;1999.90;999.90;;;14.10;99.90;;;;;;5032009;28;20030;-69
2024/03/23 09:10:38;;;;;;;1999.90;999.90;;;14.20;99.90;;;;;;5044047;28;20052;-76
2024/03/23 09:13:04;;;;;;;1999.90;999.90;;;14.30;99.90;;;;;;5040300;28;20017;-77
2024/03/23 09:15:31;;;;;;;1999.90;999.90;;;14.50;99.90;;;;;;5044132;28;20041;-77
2024/03/23 09:17:59;;;;;;;1999.90;999.90;;;14.70;99.90;;;;;;5033525;28;20045;-76
2024/03/23 09:20:25;;;;;;;1999.90;999.90;;;14.80;99.90;;;;;;5036104;28;20029;-78
2024/03/23 09:22:51;;;;;;;1999.90;999.90;;;14.70;99.90;;;;;;5033302;28;20029;-78
2024/03/23 09:25:17;;;;;;;1999.90;999.90;;;14.70;99.90;;;;;;5038371;28;20066;-79
2024/03/23 09:27:46;;;;;;;1999.90;999.90;;;14.80;99.90;;;;;;5033113;28;20028;-78
2024/03/23 09:30:13;;;;;;;1999.90;999.90;;;14.90;99.90;;;;;;5032674;28;20028;-78
2024/03/23 09:32:42;;;;;;;1999.90;999.90;;;15.00;99.90;;;;;;5039486;28;20028;-77
2024/03/23 09:35:09;;;;;;;1999.90;999.90;;;15.10;99.90;;;;;;5051314;28;20040;-79
2024/03/23 09:37:35;;;;;;;1999.90;999.90;;;15.10;99.90;;;;;;5032566;28;20474;-79
2024/03/23 09:40:11;;;;;;;1999.90;999.90;;;15.10;99.90;;;;;;5032087;28;20029;-78
2024/03/23 09:42:37;;;;;;;1999.90;999.90;;;15.00;99.90;;;;;;5032980;28;20033;-77
2024/03/23 09:45:06;;;;;;;1999.90;999.90;;;15.10;99.90;;;;;;5031048;28;20053;-74
2024/03/23 09:47:33;;;;;;;1999.90;999.90;;;15.20;99.90;;;;;;5044642;28;20037;-78
2024/03/23 09:50:00;;;;;;;1999.90;999.90;;;15.40;99.90;;;;;;5037144;28;20398;-81
2024/03/23 09:52:26;;;;;;;1999.90;999.90;;;15.40;99.90;;;;;;5031701;28;20022;-79
2024/03/23 09:54:52;;;;;;;1999.90;999.90;;;15.20;99.90;;;;;;5032289;28;20496;-79
2024/03/23 09:57:18;;;;;;;1999.90;999.90;;;15.00;99.90;;;;;;5032880;28;20030;-78
2024/03/23 09:59:45;;;;;;;1999.90;999.90;;;14.80;99.90;;;;;;5032181;28;20037;-79
2024/03/23 10:02:11;;;;;;;1999.90;999.90;;;14.80;99.90;;;;;;5030986;28;20052;-79
2024/03/23 10:04:41;;;;;;;1999.90;999.90;;;14.90;99.90;;;;;;5030314;28;20053;-78
2024/03/23 10:07:19;;;;;;;1999.90;999.90;;;15.00;99.90;;;;;;5032734;28;20048;-79
2024/03/23 10:09:45;;;;;;;1999.90;999.90;;;15.00;99.90;;;;;;5034223;28;20041;-80
2024/03/23 10:12:13;;;;;;;1999.90;999.90;;;15.00;99.90;;;;;;5028099;28;20359;-79
2024/03/23 10:14:42;;;;;;;1999.90;999.90;;;15.10;99.90;;;;;;5029833;28;20037;-78
2024/03/23 10:17:19;;;;;;;1999.90;999.90;;;15.00;99.90;;;;;;5029169;28;20029;-78
2024/03/23 10:19:51;;;;;;;1999.90;999.90;;;15.10;99.90;;;;;;5032327;28;20032;-78
2024/03/23 10:22:21;;;;;;;1999.90;999.90;;;15.20;99.90;;;;;;5042260;28;20039;-78
2024/03/23 10:24:47;;;;;;;1999.90;999.90;;;15.20;99.90;;;;;;5050620;28;20053;-78
2024/03/23 10:27:20;;;;;;;1999.90;999.90;;;15.40;99.90;;;;;;5052472;28;20052;-73
2024/03/23 10:29:46;;;;;;;1999.90;999.90;;;15.30;99.90;;;;;;5031847;28;20045;-73
2024/03/23 10:32:13;;;;;;;1999.90;999.90;;;15.20;99.90;;;;;;5031239;28;20037;-72
2024/03/23 10:34:39;;;;;;;1999.90;999.90;;;14.90;99.90;;;;;;5043821;28;20037;-73
2024/03/23 10:37:06;;;;;;;1999.90;999.90;;;15.00;99.90;;;;;;5035355;28;20041;-74
2024/03/23 10:39:34;;;;;;;1999.90;999.90;;;15.00;99.90;;;;;;5031489;28;20032;-74
2024/03/23 10:42:04;;;;;;;1999.90;999.90;;;15.00;99.90;;;;;;5034284;28;20434;-74
2024/03/23 10:44:30;;;;;;;1999.90;999.90;;;15.10;99.90;;;;;;5036508;28;20045;-74
2024/03/23 10:47:00;;;;;;;1999.90;999.90;;;15.20;99.90;;;;;;5031835;28;20037;-73
2024/03/23 10:49:33;;;;;;;1999.90;999.90;;;15.30;99.90;;;;;;5033006;28;20026;-72
2024/03/23 10:52:00;;;;;;;1999.90;999.90;;;15.30;99.90;;;;;;5031762;28;20386;-74
2024/03/23 10:54:27;;;;;;;1999.90;999.90;;;15.30;99.90;;;;;;5030226;28;20025;-73
2024/03/23 10:57:01;;;;;;;1999.90;999.90;;;15.20;99.90;;;;;;5031315;28;20033;-74
2024/03/23 10:59:27;;;;;;;1999.90;999.90;;;15.00;99.90;;;;;;5043823;28;20025;-74
2024/03/23 11:01:55;;;;;;;1999.90;999.90;;;15.20;99.90;;;;;;5038289;28;20029;-75
2024/03/23 11:04:42;;;;;;;1999.90;999.90;;;15.30;99.90;;;;;;5052782;28;20053;-75
2024/03/23 11:07:28;;;;;;;1999.90;999.90;;;15.40;99.90;;;;;;5035928;28;20407;-75
2024/03/23 11:09:54;;;;;;;1999.90;999.90;;;15.60;99.90;;;;;;5031772;28;20026;-75
2024/03/23 11:12:23;;;;;;;1999.90;999.90;;;15.60;99.90;;;;;;5028243;28;20025;-75
2024/03/23 11:14:53;;;;;;;1999.90;999.90;;;15.70;99.90;;;;;;5025753;28;20041;-77
2024/03/23 11:17:22;;;;;;;1999.90;999.90;;;15.70;99.90;;;;;;5034518;28;20056;-72
2024/03/23 11:20:05;;;;;;;1999.90;999.90;;;15.70;99.90;;;;;;5031958;28;20429;-74
2024/03/23 11:22:47;;;;;;;1999.90;999.90;;;15.70;99.90;;;;;;5034432;28;20037;-79
2024/03/23 11:25:16;;;;;;;1999.90;999.90;;;15.60;99.90;;;;;;5035862;28;20095;-72
2024/03/23 11:27:44;;;;;;;1999.90;999.90;;;15.60;99.90;;;;;;5031250;28;20049;-77
2024/03/23 11:30:22;;;;;;;1999.90;999.90;;;15.60;99.90;;;;;;5032428;28;20033;-77
2024/03/23 11:32:54;;;;;;;1999.90;999.90;;;15.20;99.90;;;;;;5032862;28;20037;-77
2024/03/23 11:35:47;;;;;;;1999.90;999.90;;;14.80;99.90;;;;;;5040066;28;20040;-76
2024/03/23 11:38:20;;;;;;;1999.90;999.90;;;14.70;99.90;;;;;;5015863;28;20025;-76
2024/03/23 11:40:50;;;;;;;1999.90;999.90;;;14.80;99.90;;;;;;5042589;28;20037;-76
2024/03/23 11:43:21;;;;;;;1999.90;999.90;;;14.70;99.90;;;;;;5033493;28;20111;-76
2024/03/23 11:45:55;;;;;;;1999.90;999.90;;;14.70;99.90;;;;;;5034831;28;20053;-76
2024/03/23 11:48:22;;;;;;;1999.90;999.90;;;14.80;99.90;;;;;;5035799;28;20065;-77
2024/03/23 11:50:57;;;;;;;1999.90;999.90;;;14.80;99.90;;;;;;5049866;28;20029;-76
2024/03/23 11:53:24;;;;;;;1999.90;999.90;;;14.70;99.90;;;;;;5045050;28;20033;-76
2024/03/23 11:55:51;;;;;;;1999.90;999.90;;;15.00;99.90;;;;;;5049954;28;20048;-76
2024/03/23 11:58:18;;;;;;;1999.90;999.90;;;15.30;99.90;;;;;;5034204;28;20382;-76
2024/03/23 12:00:57;;;;;;;1999.90;999.90;;;15.70;99.90;;;;;;5034374;28;20030;-76
2024/03/23 12:03:25;;;;;;;1999.90;999.90;;;15.70;99.90;;;;;;5036192;28;20025;-75
2024/03/23 12:05:55;;;;;;;1999.90;999.90;;;15.90;99.90;;;;;;5032141;28;20505;-75
2024/03/23 12:08:21;;;;;;;1999.90;999.90;;;15.80;99.90;;;;;;5034182;28;20481;-75
2024/03/23 12:11:11;;;;;;;1999.90;999.90;;;15.80;99.90;;;;;;5034331;28;20386;-75
2024/03/23 12:13:38;;;;;;;1999.90;999.90;;;15.80;99.90;;;;;;5034398;28;20034;-75
2024/03/23 12:16:17;;;;;;;1999.90;999.90;;;15.80;99.90;;;;;;5034945;28;20033;-75
2024/03/23 12:18:45;;;;;;;1999.90;999.90;;;15.80;99.90;;;;;;5041659;28;20044;-75
2024/03/23 12:21:11;;;;;;;1999.90;999.90;;;15.60;99.90;;;;;;5034437;28;20031;-75